Ana Sayfa
METAR-TAF:

METAR-TAF

Havaalanları :

Zagreb Havalimanı

Zagreb, Hırvatistan

Enlem: 45-44N, Boylam: 016-04E, yükseklik: 106 m

Güncel hava durumu gözlemi

Rapor saat 14:00 UTC de 13 dakika önce yapıldı.
Rüzgar değişken yönden 4 kt
Sıcaklık 13°C
Nem 28%
Basınç 1030 hPa
Görüş mesafesi 10 km veya daha fazla
1500 m altında bulut yok ve kümülonimbus yok

METAR: LDZA 221400Z VRB04KT CAVOK 13/M05 Q1030 NOSIG

Saat: 15:13 (14:13 UTC)

Tahmin

Rapor saat 11:25 UTC de 2 saat ve 48 dakika önce yapıldı.
Ayın 22'si saat 12 UTC'den ayın 23'si saat 12 UTC'ye kadar geçerli Tahmin
Rüzgar batı/güneybatıdan 8 kt
Görüş mesafesi 10 km veya daha fazla
1500 m altında bulut yok ve kümülonimbus yok
Dönüşüyor
ayın 23'si saat 10 UTC'den ayın 23'si saat 12 UTC'ye kadar
Rüzgar batı/güneybatıdan 12 kt

TAF: LDZA 221125Z 2212/2312 24008KT CAVOK TX14/2213Z TN03/2305Z BECMG 2310/2312 25012KT

4.000'den fazla havaalanı için hava durumu gözlemleri ve tahminleri (METAR ve TAF raporları).

Kullanılabilir istasyonlar harita üzerinde sarı ve kırmızı noktalarla gösterilir.

İstasyonun adını görmek için fareyi noktanın üzerinde gezdirin.

Sonrasında hava gözlem ve tahminlerini görmek için tıklayın.

Haritayı değiştirmek için: yaklaştırmak için siyah artı işaretli yeşil düğmeye ve uzaklaştırmak için de eksi işaretli düğmeye hızla tıklayın; bitişik haritalar için yeşil okları kullanın.


METAR-TAF: